Astor — C6JR3 — position and weather

sailwx.info

Track history (hours):
 
Tides and Currents Weather Stations Pressure Air Temp Water Temp Dewpoint Dewpoint Depression Visibility Wind Speed Wind Dir Waves Ship Positions

Astor

Operator: Passat Ship Management Ltd

Last reported at 2019-May-19 22:49 UTC. Time now 2019-May-20 03:11 UTC.
Position N 51°45' W 010°42'.

Length 177 m; draft 6.2 m.

Type: Ship. MMSI: 308214000.

Date/timePositionNaut miles runAvg speedWind from/ knotsBaromVisibWave heightAir tempDewpointWater temp
2019-May-19 22:49N 51°45' W 010°42'815.2
2019-May-19 22:16N 51°39' W 010°32'415.8
2019-May-19 22:00N 51°36' W 010°28'815.5
2019-May-19 21:30N 51°32' W 010°17'815.9
2019-May-19 21:00N 51°33' W 010°04'816.0
2019-May-19 20:30N 51°35' W 009°52'816.0
2019-May-19 20:00N 51°39' W 009°41'612.7
2019-May-19 19:30N 51°42' W 009°32'3 5.4
2019-May-19 19:00N 51°41' W 009°28'0 0.6
2019-May-19 18:29N 51°41' W 009°28'0 0.0
2019-May-19 17:56N 51°41' W 009°28'0 0.1
2019-May-19 17:29N 51°41' W 009°28'0 0.0
2019-May-19 16:58N 51°41' W 009°28'0 0.0
2019-May-19 16:25N 51°41' W 009°28'0 0.1
2019-May-19 15:55N 51°41' W 009°28'0 0.0
2019-May-19 15:13N 51°41' W 009°28'0 0.1
2019-May-19 15:00N 51°41' W 009°28'0 0.0
2019-May-19 14:30N 51°41' W 009°28'0 0.0
2019-May-19 14:00N 51°41' W 009°28'0 0.0
2019-May-19 13:30N 51°41' W 009°28'0 0.0
2019-May-19 12:57N 51°41' W 009°28'0 0.0
2019-May-19 12:29N 51°41' W 009°28'0 0.0
2019-May-19 11:59N 51°41' W 009°28'0 0.0
2019-May-19 11:29N 51°41' W 009°28'0 0.0
2019-May-19 10:59N 51°41' W 009°28'0 0.0
2019-May-19 10:28N 51°41' W 009°28'0 0.0
2019-May-19 09:55N 51°41' W 009°28'0 0.0
2019-May-19 09:28N 51°41' W 009°28'1 2.8
2019-May-19 08:59N 51°42' W 009°28'4 8.2
2019-May-19 08:30N 51°41' W 009°34'611.2
2019-May-19 08:00N 51°38' W 009°42'612.2
2019-May-19 07:30N 51°35' W 009°50'612.7
2019-May-19 07:01N 51°29' W 009°54'714.1
2019-May-19 06:31N 51°23' W 009°50'815.9
2019-May-19 06:01N 51°17' W 009°41'815.8
2019-May-19 05:30N 51°11' W 009°32'815.7
2019-May-19 05:00N 51°06' W 009°22'815.6
2019-May-19 04:30N 51°02' W 009°12'17514.5
2019-May-18 16:22N 49°54' W 004°58'515.0
2019-May-18 16:00N 49°55' W 004°50'714.9
2019-May-18 15:31N 49°57' W 004°39'715.0
2019-May-18 15:01N 49°60' W 004°28'815.4
2019-May-18 14:30N 50°03' W 004°17'815.8
2019-May-18 14:01N 50°05' W 004°05'816.6
2019-May-18 13:31N 50°08' W 003°53'917.6
2019-May-18 13:01N 50°11' W 003°40'918.0
2019-May-18 12:31N 50°17' W 003°30'816.1
2019-May-18 12:00N 50°25' W 003°27'4 7.0
2019-May-18 11:30N 50°27' W 003°32'0 0.1
2019-May-18 11:00N 50°27' W 003°32'0 0.0
2019-May-18 10:29N 50°27' W 003°32'0 0.1
2019-May-18 09:59N 50°27' W 003°32'0 0.0
2019-May-18 09:29N 50°27' W 003°32'0 0.0
2019-May-18 08:59N 50°27' W 003°32'0 0.0
2019-May-18 08:29N 50°27' W 003°32'0 0.0
2019-May-18 07:58N 50°27' W 003°32'0 0.0
2019-May-18 07:28N 50°27' W 003°32'0 0.0
2019-May-18 06:58N 50°27' W 003°32'0 0.0
2019-May-18 06:28N 50°27' W 003°32'0 0.0
2019-May-18 06:01N 50°27' W 003°32'1 1.3
2019-May-18 05:31N 50°27' W 003°31'4 8.5
2019-May-18 05:01N 50°25' W 003°24'4 8.1
2019-May-18 04:30N 50°25' W 003°18'510.2
2019-May-18 04:00N 50°25' W 003°10'510.1
2019-May-18 03:30N 50°25' W 003°02'510.4
2019-May-18 03:01N 50°25' W 002°54'510.2
2019-May-18 02:30N 50°24' W 002°46'613.0
2019-May-18 02:00N 50°24' W 002°36'714.6
2019-May-18 01:30N 50°24' W 002°24'815.0
2019-May-18 01:00N 50°24' W 002°13'815.1
2019-May-18 00:30N 50°24' W 002°01'2314.2
2019-May-17 22:51N 50°24' W 001°24'513.5
2019-May-17 22:30N 50°25' W 001°17'714.0
2019-May-17 22:00N 50°25' W 001°06'1113.3
2019-May-17 21:11N 50°25' W 000°49'212.3
2019-May-17 21:00N 50°26' W 000°45'611.6
2019-May-17 20:30N 50°27' W 000°36'611.6
2019-May-17 20:00N 50°29' W 000°28'611.9
2019-May-17 19:30N 50°30' W 000°18'712.3
2019-May-17 18:58N 50°31' W 000°08'612.8
2019-May-17 18:28N 50°33' E 000°02'1613.3
2019-May-17 17:17N 50°37' E 000°26'516.0
2019-May-17 17:00N 50°38' E 000°33'816.9
2019-May-17 16:30N 50°42' E 000°44'917.4
2019-May-17 16:00N 50°46' E 000°56'917.4
2019-May-17 15:30N 50°51' E 001°07'817.0
2019-May-17 15:00N 50°55' E 001°19'816.5
2019-May-17 14:30N 51°01' E 001°28'815.1
2019-May-17 14:00N 51°07' E 001°36'714.2
2019-May-17 13:30N 51°12' E 001°43'713.7
2019-May-17 13:00N 51°18' E 001°50'713.7
2019-May-17 12:30N 51°24' E 001°54'713.9
2019-May-17 12:01N 51°30' E 002°01'714.3
2019-May-17 11:30N 51°35' E 002°09'714.2
2019-May-17 11:00N 51°41' E 002°15'2613.8
2019-May-17 09:08N 51°60' E 002°44'3717.0
2019-May-17 06:57N 52°30' E 003°20'1117.1
2019-May-17 06:18N 52°38' E 003°31'4115.5
2019-May-17 03:41N 53°07' E 004°19'314.2
2019-May-17 03:28N 53°09' E 004°23'12814.8
2019-May-16 18:51N 53°59' E 007°41'10 9.7
2019-May-16 17:48N 53°52' E 007°54'3 9.7
2019-May-16 17:30N 53°51' E 007°59'612.1
2019-May-16 17:00N 53°48' E 008°08'713.7
2019-May-16 16:30N 53°43' E 008°16'714.3
2019-May-16 16:00N 53°39' E 008°25'613.1
2019-May-16 15:31N 53°34' E 008°32'1 1.0
2019-May-16 14:56N 53°34' E 008°33'0 0.0
2019-May-16 14:29N 53°34' E 008°33'0 0.0
2019-May-16 13:58N 53°34' E 008°33'0 0.0
2019-May-16 13:28N 53°34' E 008°33'0 0.0
2019-May-16 12:58N 53°34' E 008°33'0 0.0
2019-May-16 12:28N 53°34' E 008°33'0 0.0
2019-May-16 12:01N 53°34' E 008°33'0 0.0
2019-May-16 11:30N 53°34' E 008°33'0 0.0
2019-May-16 11:00N 53°34' E 008°33'0 0.0
2019-May-16 10:30N 53°34' E 008°33'0 0.0
2019-May-16 10:00N 53°34' E 008°33'0 0.0
2019-May-16 09:29N 53°34' E 008°33'0 0.0
2019-May-16 08:59N 53°34' E 008°33'0 0.0
2019-May-16 08:29N 53°34' E 008°33'0 0.0
2019-May-16 07:56N 53°34' E 008°33'0 0.0
2019-May-16 07:23N 53°34' E 008°33'0 0.0
2019-May-16 07:01N 53°34' E 008°33'0 0.4
2019-May-16 06:31N 53°34' E 008°33'3 6.8
2019-May-16 06:01N 53°37' E 008°29'714.0
2019-May-16 05:30N 53°41' E 008°21'815.2
2019-May-16 05:00N 53°46' E 008°10'714.6
2019-May-16 04:30N 53°51' E 008°01'611.9
2019-May-16 03:59N 53°52' E 007°51'20 2.0
2019-May-15 18:10N 54°12' E 007°52'0 0.1
2019-May-15 17:53N 54°12' E 007°52'0 0.0
2019-May-15 17:27N 54°12' E 007°52'0 0.0
2019-May-15 15:41N 54°12' E 007°52'0 0.0
2019-May-15 15:08N 54°12' E 007°52'0 0.0
2019-May-15 14:52N 54°12' E 007°52'0 0.0
2019-May-15 14:29N 54°12' E 007°52'0 0.0
2019-May-15 13:42N 54°12' E 007°52'0 0.0
2019-May-15 05:51N 54°12' E 007°52'24 5.8
2019-May-15 01:38N 54°34' E 007°35'211.3
2019-May-15 01:29N 54°36' E 007°34'1011.2
2019-May-15 00:36N 54°46' E 007°35'211.1
2019-May-15 00:26N 54°47' E 007°35'611.2
2019-May-14 23:57N 54°53' E 007°35'510.9
2019-May-14 23:29N 54°58' E 007°35'510.8
2019-May-14 23:00N 55°03' E 007°35'611.2
2019-May-14 22:30N 55°06' E 007°44'25 2.5
2019-May-14 12:24N 55°02' E 008°27'0 0.0
2019-May-14 11:29N 55°02' E 008°27'48 1.4
2019-May-13 00:56N 54°25' E 007°33'3813.5
2019-May-12 22:07N 53°60' E 008°22'916.4
2019-May-12 21:34N 53°58' E 008°37'913.8
2019-May-12 20:56N 53°51' E 008°46'612.8
2019-May-12 20:29N 53°51' E 008°56'612.3
2019-May-12 19:59N 53°53' E 009°06'610.9
2019-May-12 19:24N 53°52' E 009°17'512.5
2019-May-12 19:00N 53°49' E 009°22'510.5
2019-May-12 18:30N 53°44' E 009°27'510.6
2019-May-12 18:00N 53°39' E 009°31'4 8.7
2019-May-12 17:30N 53°36' E 009°36'5 9.2
2019-May-12 17:00N 53°34' E 009°42'4 8.5
2019-May-12 16:30N 53°33' E 009°50'4 8.2
2019-May-12 16:00N 53°32' E 009°56'2 4.5
2019-May-12 15:30N 53°32' E 010°00'0 0.3
2019-May-12 15:00N 53°32' E 010°00'0 0.0
2019-May-12 14:30N 53°32' E 010°00'0 0.0
2019-May-12 14:00N 53°32' E 010°00'0 0.0
2019-May-12 13:30N 53°32' E 010°00'0 0.0
2019-May-12 13:00N 53°32' E 010°00'0 0.0
2019-May-12 12:29N 53°32' E 010°00'0 0.0
2019-May-12 11:59N 53°32' E 010°00'0 0.0
2019-May-12 11:29N 53°32' E 010°00'0 0.0
2019-May-12 10:59N 53°32' E 010°00'0 0.0
2019-May-12 10:28N 53°32' E 010°00'0 0.0
2019-May-12 09:58N 53°32' E 010°00'0 0.0
2019-May-12 09:28N 53°32' E 010°00'0 0.0
2019-May-12 08:58N 53°32' E 010°00'0 0.0
2019-May-12 08:28N 53°32' E 010°00'0 0.0
2019-May-12 08:00N 53°32' E 010°00'0 0.0
2019-May-12 07:30N 53°32' E 010°00'0 0.0
2019-May-12 07:00N 53°32' E 010°00'0 0.0
2019-May-12 06:27N 53°32' E 010°00'0 0.0
2019-May-12 05:59N 53°32' E 010°00'0 0.0
2019-May-12 05:29N 53°32' E 010°00'0 0.0
2019-May-12 04:59N 53°32' E 010°00'0 0.0
2019-May-12 04:29N 53°32' E 010°00'0 0.0
2019-May-12 03:59N 53°32' E 010°00'0 0.0
2019-May-12 03:28N 53°32' E 010°00'0 0.0
2019-May-12 02:58N 53°32' E 010°00'0 0.0
2019-May-12 02:28N 53°32' E 010°00'0 0.0
2019-May-12 01:58N 53°32' E 010°00'0 0.0
2019-May-12 01:28N 53°32' E 010°00'0 0.0
2019-May-12 01:00N 53°32' E 010°00'0 0.0
2019-May-12 00:30N 53°32' E 010°00'0 0.0
2019-May-12 00:00N 53°32' E 010°00'0 0.0
2019-May-11 23:30N 53°32' E 010°00'0 0.0
2019-May-11 22:59N 53°32' E 010°00'0 0.0
2019-May-11 22:29N 53°32' E 010°00'0 0.0
2019-May-11 21:59N 53°32' E 010°00'0 0.0
2019-May-11 21:29N 53°32' E 010°00'0 0.0
2019-May-11 20:59N 53°32' E 010°00'0 0.0
2019-May-11 20:28N 53°32' E 010°00'0 0.0
2019-May-11 19:58N 53°32' E 010°00'0 0.0
2019-May-11 19:28N 53°32' E 010°00'0 0.0
2019-May-11 18:58N 53°32' E 010°00'0 0.0
2019-May-11 18:31N 53°32' E 010°00'0 0.0
2019-May-11 17:54N 53°32' E 010°00'0 0.0
2019-May-11 17:30N 53°32' E 010°00'0 0.0
2019-May-11 17:00N 53°32' E 010°00'0 0.0
2019-May-11 16:30N 53°32' E 010°00'0 0.0
2019-May-11 15:59N 53°32' E 010°00'0 0.0
2019-May-11 15:29N 53°32' E 010°00'0 0.0
2019-May-11 14:59N 53°32' E 010°00'0 0.0
2019-May-11 14:29N 53°32' E 010°00'0 0.0
2019-May-11 13:59N 53°32' E 010°00'0 0.0
2019-May-11 13:28N 53°32' E 010°00'0 0.0
2019-May-11 12:58N 53°32' E 010°00'0 0.0
2019-May-11 12:28N 53°32' E 010°00'0 0.0
2019-May-11 11:58N 53°32' E 010°00'0 0.0
2019-May-11 11:30N 53°32' E 010°00'0 0.0
2019-May-11 11:00N 53°32' E 010°00'0 0.0
2019-May-11 10:30N 53°32' E 010°00'0 0.0
2019-May-11 10:00N 53°32' E 010°00'0 0.0
2019-May-11 09:30N 53°32' E 010°00'0 0.0
2019-May-11 08:59N 53°32' E 010°00'0 0.0
2019-May-11 08:29N 53°32' E 010°00'0 0.0
2019-May-11 07:59N 53°32' E 010°00'0 0.0
2019-May-11 07:29N 53°32' E 010°00'0 0.0
2019-May-11 06:55N 53°32' E 010°00'0 0.0
2019-May-11 06:28N 53°32' E 010°00'0 0.0
2019-May-11 05:58N 53°32' E 010°00'0 0.0
2019-May-11 05:28N 53°32' E 010°00'0 0.0
2019-May-11 04:58N 53°32' E 010°00'0 0.0
2019-May-11 04:27N 53°32' E 010°00'0 0.0
2019-May-11 04:00N 53°32' E 010°00'0 0.0
2019-May-11 03:30N 53°32' E 010°00'0 0.0
2019-May-11 03:00N 53°32' E 010°00'0 0.0
2019-May-11 02:30N 53°32' E 010°00'0 0.0
2019-May-11 01:59N 53°32' E 010°00'0 0.0
2019-May-11 01:29N 53°32' E 010°00'0 0.0
2019-May-11 00:59N 53°32' E 010°00'0 0.0
2019-May-11 00:29N 53°32' E 010°00'0 0.0
2019-May-10 23:58N 53°32' E 010°00'0 0.0
2019-May-10 23:28N 53°32' E 010°00'0 0.0
2019-May-10 22:58N 53°32' E 010°00'0 0.0
2019-May-10 22:28N 53°32' E 010°00'0 0.0
2019-May-10 21:58N 53°32' E 010°00'0 0.0
2019-May-10 21:30N 53°32' E 010°00'0 0.0
2019-May-10 21:00N 53°32' E 010°00'0 0.0
2019-May-10 20:30N 53°32' E 010°00'0 0.0
2019-May-10 20:00N 53°32' E 010°00'0 0.0
2019-May-10 19:30N 53°32' E 010°00'0 0.0
2019-May-10 18:59N 53°32' E 010°00'0 0.0
2019-May-10 18:29N 53°32' E 010°00'0 0.0
2019-May-10 17:59N 53°32' E 010°00'0 0.0
2019-May-10 17:29N 53°32' E 010°00'0 0.0
2019-May-10 16:58N 53°32' E 010°00'0 0.0
2019-May-10 16:28N 53°32' E 010°00'0 0.0
2019-May-10 15:58N 53°32' E 010°00'0 0.0
2019-May-10 15:28N 53°32' E 010°00'0 0.0
2019-May-10 14:58N 53°32' E 010°00'0 0.0
2019-May-10 14:30N 53°32' E 010°00'0 0.0
2019-May-10 14:00N 53°32' E 010°00'0 0.0
2019-May-10 13:30N 53°32' E 010°00'0 0.0
2019-May-10 13:00N 53°32' E 010°00'0 0.0
2019-May-10 12:30N 53°32' E 010°00'0 0.0
2019-May-10 11:59N 53°32' E 010°00'0 0.0
2019-May-10 11:29N 53°32' E 010°00'0 0.0
2019-May-10 11:00N 53°32' E 010°00'2 4.4
2019-May-10 10:30N 53°33' E 009°57'4 7.1
2019-May-10 10:00N 53°33' E 009°51'3 5.4
2019-May-10 09:30N 53°34' E 009°46'4 8.2
2019-May-10 09:00N 53°34' E 009°40'5 9.5
2019-May-10 08:30N 53°37' E 009°33'5 9.4
2019-May-10 08:00N 53°41' E 009°30'510.5
2019-May-10 07:30N 53°45' E 009°24'611.6
2019-May-10 07:00N 53°51' E 009°20'611.2
2019-May-10 06:29N 53°53' E 009°11'510.0
2019-May-10 06:00N 53°52' E 009°03'612.8
2019-May-10 05:30N 53°50' E 008°52'612.7
2019-May-10 05:00N 53°53' E 008°43'612.9
2019-May-10 04:30N 53°58' E 008°35'713.2
2019-May-10 03:59N 53°59' E 008°24'612.0
2019-May-10 03:30N 53°60' E 008°14'911.1
2019-May-10 02:43N 54°01' E 007°59'  
Track history (hours):
 
Tides and Currents Weather Stations Pressure Air Temp Water Temp Dewpoint Dewpoint Depression Visibility Wind Speed Wind Dir Waves Ship Positions

Astor

Operator: Passat Ship Management Ltd

Last reported at 2019-May-19 22:49 UTC. Time now 2019-May-20 03:11 UTC.
Position N 51°45' W 010°42'.

Length 177 m; draft 6.2 m.

Type: Ship. MMSI: 308214000.

Date/timePositionNaut miles runAvg speedWind from/ knotsBaromVisibWave heightAir tempDewpointWater temp
2019-May-19 22:49N 51°45' W 010°42'815.2
2019-May-19 22:16N 51°39' W 010°32'415.8
2019-May-19 22:00N 51°36' W 010°28'815.5
2019-May-19 21:30N 51°32' W 010°17'815.9
2019-May-19 21:00N 51°33' W 010°04'816.0
2019-May-19 20:30N 51°35' W 009°52'816.0
2019-May-19 20:00N 51°39' W 009°41'612.7
2019-May-19 19:30N 51°42' W 009°32'3 5.4
2019-May-19 19:00N 51°41' W 009°28'0 0.6
2019-May-19 18:29N 51°41' W 009°28'0 0.0
2019-May-19 17:56N 51°41' W 009°28'0 0.1
2019-May-19 17:29N 51°41' W 009°28'0 0.0
2019-May-19 16:58N 51°41' W 009°28'0 0.0
2019-May-19 16:25N 51°41' W 009°28'0 0.1
2019-May-19 15:55N 51°41' W 009°28'0 0.0
2019-May-19 15:13N 51°41' W 009°28'0 0.1
2019-May-19 15:00N 51°41' W 009°28'0 0.0
2019-May-19 14:30N 51°41' W 009°28'0 0.0
2019-May-19 14:00N 51°41' W 009°28'0 0.0
2019-May-19 13:30N 51°41' W 009°28'0 0.0
2019-May-19 12:57N 51°41' W 009°28'0 0.0
2019-May-19 12:29N 51°41' W 009°28'0 0.0
2019-May-19 11:59N 51°41' W 009°28'0 0.0
2019-May-19 11:29N 51°41' W 009°28'0 0.0
2019-May-19 10:59N 51°41' W 009°28'0 0.0
2019-May-19 10:28N 51°41' W 009°28'0 0.0
2019-May-19 09:55N 51°41' W 009°28'0 0.0
2019-May-19 09:28N 51°41' W 009°28'1 2.8
2019-May-19 08:59N 51°42' W 009°28'4 8.2
2019-May-19 08:30N 51°41' W 009°34'611.2
2019-May-19 08:00N 51°38' W 009°42'612.2
2019-May-19 07:30N 51°35' W 009°50'612.7
2019-May-19 07:01N 51°29' W 009°54'714.1
2019-May-19 06:31N 51°23' W 009°50'815.9
2019-May-19 06:01N 51°17' W 009°41'815.8
2019-May-19 05:30N 51°11' W 009°32'815.7
2019-May-19 05:00N 51°06' W 009°22'815.6
2019-May-19 04:30N 51°02' W 009°12'17514.5
2019-May-18 16:22N 49°54' W 004°58'515.0
2019-May-18 16:00N 49°55' W 004°50'714.9
2019-May-18 15:31N 49°57' W 004°39'715.0
2019-May-18 15:01N 49°60' W 004°28'815.4
2019-May-18 14:30N 50°03' W 004°17'815.8
2019-May-18 14:01N 50°05' W 004°05'816.6
2019-May-18 13:31N 50°08' W 003°53'917.6
2019-May-18 13:01N 50°11' W 003°40'918.0
2019-May-18 12:31N 50°17' W 003°30'816.1
2019-May-18 12:00N 50°25' W 003°27'4 7.0
2019-May-18 11:30N 50°27' W 003°32'0 0.1
2019-May-18 11:00N 50°27' W 003°32'0 0.0
2019-May-18 10:29N 50°27' W 003°32'0 0.1
2019-May-18 09:59N 50°27' W 003°32'0 0.0
2019-May-18 09:29N 50°27' W 003°32'0 0.0
2019-May-18 08:59N 50°27' W 003°32'0 0.0
2019-May-18 08:29N 50°27' W 003°32'0 0.0
2019-May-18 07:58N 50°27' W 003°32'0 0.0
2019-May-18 07:28N 50°27' W 003°32'0 0.0
2019-May-18 06:58N 50°27' W 003°32'0 0.0
2019-May-18 06:28N 50°27' W 003°32'0 0.0
2019-May-18 06:01N 50°27' W 003°32'1 1.3
2019-May-18 05:31N 50°27' W 003°31'4 8.5
2019-May-18 05:01N 50°25' W 003°24'4 8.1
2019-May-18 04:30N 50°25' W 003°18'510.2
2019-May-18 04:00N 50°25' W 003°10'510.1
2019-May-18 03:30N 50°25' W 003°02'510.4
2019-May-18 03:01N 50°25' W 002°54'510.2
2019-May-18 02:30N 50°24' W 002°46'613.0
2019-May-18 02:00N 50°24' W 002°36'714.6
2019-May-18 01:30N 50°24' W 002°24'815.0
2019-May-18 01:00N 50°24' W 002°13'815.1
2019-May-18 00:30N 50°24' W 002°01'2314.2
2019-May-17 22:51N 50°24' W 001°24'513.5
2019-May-17 22:30N 50°25' W 001°17'714.0
2019-May-17 22:00N 50°25' W 001°06'1113.3
2019-May-17 21:11N 50°25' W 000°49'212.3
2019-May-17 21:00N 50°26' W 000°45'611.6
2019-May-17 20:30N 50°27' W 000°36'611.6
2019-May-17 20:00N 50°29' W 000°28'611.9
2019-May-17 19:30N 50°30' W 000°18'712.3
2019-May-17 18:58N 50°31' W 000°08'612.8
2019-May-17 18:28N 50°33' E 000°02'1613.3
2019-May-17 17:17N 50°37' E 000°26'516.0
2019-May-17 17:00N 50°38' E 000°33'816.9
2019-May-17 16:30N 50°42' E 000°44'917.4
2019-May-17 16:00N 50°46' E 000°56'917.4
2019-May-17 15:30N 50°51' E 001°07'817.0
2019-May-17 15:00N 50°55' E 001°19'816.5
2019-May-17 14:30N 51°01' E 001°28'815.1
2019-May-17 14:00N 51°07' E 001°36'714.2
2019-May-17 13:30N 51°12' E 001°43'713.7
2019-May-17 13:00N 51°18' E 001°50'713.7
2019-May-17 12:30N 51°24' E 001°54'713.9
2019-May-17 12:01N 51°30' E 002°01'714.3
2019-May-17 11:30N 51°35' E 002°09'714.2
2019-May-17 11:00N 51°41' E 002°15'2613.8
2019-May-17 09:08N 51°60' E 002°44'3717.0
2019-May-17 06:57N 52°30' E 003°20'1117.1
2019-May-17 06:18N 52°38' E 003°31'4115.5
2019-May-17 03:41N 53°07' E 004°19'314.2
2019-May-17 03:28N 53°09' E 004°23'12814.8
2019-May-16 18:51N 53°59' E 007°41'10 9.7
2019-May-16 17:48N 53°52' E 007°54'3 9.7
2019-May-16 17:30N 53°51' E 007°59'612.1
2019-May-16 17:00N 53°48' E 008°08'713.7
2019-May-16 16:30N 53°43' E 008°16'714.3
2019-May-16 16:00N 53°39' E 008°25'613.1
2019-May-16 15:31N 53°34' E 008°32'1 1.0
2019-May-16 14:56N 53°34' E 008°33'0 0.0
2019-May-16 14:29N 53°34' E 008°33'0 0.0
2019-May-16 13:58N 53°34' E 008°33'0 0.0
2019-May-16 13:28N 53°34' E 008°33'0 0.0
2019-May-16 12:58N 53°34' E 008°33'0 0.0
2019-May-16 12:28N 53°34' E 008°33'0 0.0
2019-May-16 12:01N 53°34' E 008°33'0 0.0
2019-May-16 11:30N 53°34' E 008°33'0 0.0
2019-May-16 11:00N 53°34' E 008°33'0 0.0
2019-May-16 10:30N 53°34' E 008°33'0 0.0
2019-May-16 10:00N 53°34' E 008°33'0 0.0
2019-May-16 09:29N 53°34' E 008°33'0 0.0
2019-May-16 08:59N 53°34' E 008°33'0 0.0
2019-May-16 08:29N 53°34' E 008°33'0 0.0
2019-May-16 07:56N 53°34' E 008°33'0 0.0
2019-May-16 07:23N 53°34' E 008°33'0 0.0
2019-May-16 07:01N 53°34' E 008°33'0 0.4
2019-May-16 06:31N 53°34' E 008°33'3 6.8
2019-May-16 06:01N 53°37' E 008°29'714.0
2019-May-16 05:30N 53°41' E 008°21'815.2
2019-May-16 05:00N 53°46' E 008°10'714.6
2019-May-16 04:30N 53°51' E 008°01'611.9
2019-May-16 03:59N 53°52' E 007°51'20 2.0
2019-May-15 18:10N 54°12' E 007°52'0 0.1
2019-May-15 17:53N 54°12' E 007°52'0 0.0
2019-May-15 17:27N 54°12' E 007°52'0 0.0
2019-May-15 15:41N 54°12' E 007°52'0 0.0
2019-May-15 15:08N 54°12' E 007°52'0 0.0
2019-May-15 14:52N 54°12' E 007°52'0 0.0
2019-May-15 14:29N 54°12' E 007°52'0 0.0
2019-May-15 13:42N 54°12' E 007°52'0 0.0
2019-May-15 05:51N 54°12' E 007°52'24 5.8
2019-May-15 01:38N 54°34' E 007°35'211.3
2019-May-15 01:29N 54°36' E 007°34'1011.2
2019-May-15 00:36N 54°46' E 007°35'211.1
2019-May-15 00:26N 54°47' E 007°35'611.2
2019-May-14 23:57N 54°53' E 007°35'510.9
2019-May-14 23:29N 54°58' E 007°35'510.8
2019-May-14 23:00N 55°03' E 007°35'611.2
2019-May-14 22:30N 55°06' E 007°44'25 2.5
2019-May-14 12:24N 55°02' E 008°27'0 0.0
2019-May-14 11:29N 55°02' E 008°27'48 1.4
2019-May-13 00:56N 54°25' E 007°33'3813.5
2019-May-12 22:07N 53°60' E 008°22'916.4
2019-May-12 21:34N 53°58' E 008°37'913.8
2019-May-12 20:56N 53°51' E 008°46'612.8
2019-May-12 20:29N 53°51' E 008°56'612.3
2019-May-12 19:59N 53°53' E 009°06'610.9
2019-May-12 19:24N 53°52' E 009°17'512.5
2019-May-12 19:00N 53°49' E 009°22'510.5
2019-May-12 18:30N 53°44' E 009°27'510.6
2019-May-12 18:00N 53°39' E 009°31'4 8.7
2019-May-12 17:30N 53°36' E 009°36'5 9.2
2019-May-12 17:00N 53°34' E 009°42'4 8.5
2019-May-12 16:30N 53°33' E 009°50'4 8.2
2019-May-12 16:00N 53°32' E 009°56'2 4.5
2019-May-12 15:30N 53°32' E 010°00'0 0.3
2019-May-12 15:00N 53°32' E 010°00'0 0.0
2019-May-12 14:30N 53°32' E 010°00'0 0.0
2019-May-12 14:00N 53°32' E 010°00'0 0.0
2019-May-12 13:30N 53°32' E 010°00'0 0.0
2019-May-12 13:00N 53°32' E 010°00'0 0.0
2019-May-12 12:29N 53°32' E 010°00'0 0.0
2019-May-12 11:59N 53°32' E 010°00'0 0.0
2019-May-12 11:29N 53°32' E 010°00'0 0.0
2019-May-12 10:59N 53°32' E 010°00'0 0.0
2019-May-12 10:28N 53°32' E 010°00'0 0.0
2019-May-12 09:58N 53°32' E 010°00'0 0.0
2019-May-12 09:28N 53°32' E 010°00'0 0.0
2019-May-12 08:58N 53°32' E 010°00'0 0.0
2019-May-12 08:28N 53°32' E 010°00'0 0.0
2019-May-12 08:00N 53°32' E 010°00'0 0.0
2019-May-12 07:30N 53°32' E 010°00'0 0.0
2019-May-12 07:00N 53°32' E 010°00'0 0.0
2019-May-12 06:27N 53°32' E 010°00'0 0.0
2019-May-12 05:59N 53°32' E 010°00'0 0.0
2019-May-12 05:29N 53°32' E 010°00'0 0.0
2019-May-12 04:59N 53°32' E 010°00'0 0.0
2019-May-12 04:29N 53°32' E 010°00'0 0.0
2019-May-12 03:59N 53°32' E 010°00'0 0.0
2019-May-12 03:28N 53°32' E 010°00'0 0.0
2019-May-12 02:58N 53°32' E 010°00'0 0.0
2019-May-12 02:28N 53°32' E 010°00'0 0.0
2019-May-12 01:58N 53°32' E 010°00'0 0.0
2019-May-12 01:28N 53°32' E 010°00'0 0.0
2019-May-12 01:00N 53°32' E 010°00'0 0.0
2019-May-12 00:30N 53°32' E 010°00'0 0.0
2019-May-12 00:00N 53°32' E 010°00'0 0.0
2019-May-11 23:30N 53°32' E 010°00'0 0.0
2019-May-11 22:59N 53°32' E 010°00'0 0.0
2019-May-11 22:29N 53°32' E 010°00'0 0.0
2019-May-11 21:59N 53°32' E 010°00'0 0.0
2019-May-11 21:29N 53°32' E 010°00'0 0.0
2019-May-11 20:59N 53°32' E 010°00'0 0.0
2019-May-11 20:28N 53°32' E 010°00'0 0.0
2019-May-11 19:58N 53°32' E 010°00'0 0.0
2019-May-11 19:28N 53°32' E 010°00'0 0.0
2019-May-11 18:58N 53°32' E 010°00'0 0.0
2019-May-11 18:31N 53°32' E 010°00'0 0.0
2019-May-11 17:54N 53°32' E 010°00'0 0.0
2019-May-11 17:30N 53°32' E 010°00'0 0.0
2019-May-11 17:00N 53°32' E 010°00'0 0.0
2019-May-11 16:30N 53°32' E 010°00'0 0.0
2019-May-11 15:59N 53°32' E 010°00'0 0.0
2019-May-11 15:29N 53°32' E 010°00'0 0.0
2019-May-11 14:59N 53°32' E 010°00'0 0.0
2019-May-11 14:29N 53°32' E 010°00'0 0.0
2019-May-11 13:59N 53°32' E 010°00'0 0.0
2019-May-11 13:28N 53°32' E 010°00'0 0.0
2019-May-11 12:58N 53°32' E 010°00'0 0.0
2019-May-11 12:28N 53°32' E 010°00'0 0.0
2019-May-11 11:58N 53°32' E 010°00'0 0.0
2019-May-11 11:30N 53°32' E 010°00'0 0.0
2019-May-11 11:00N 53°32' E 010°00'0 0.0
2019-May-11 10:30N 53°32' E 010°00'0 0.0
2019-May-11 10:00N 53°32' E 010°00'0 0.0
2019-May-11 09:30N 53°32' E 010°00'0 0.0
2019-May-11 08:59N 53°32' E 010°00'0 0.0
2019-May-11 08:29N 53°32' E 010°00'0 0.0
2019-May-11 07:59N 53°32' E 010°00'0 0.0
2019-May-11 07:29N 53°32' E 010°00'0 0.0
2019-May-11 06:55N 53°32' E 010°00'0 0.0
2019-May-11 06:28N 53°32' E 010°00'0 0.0
2019-May-11 05:58N 53°32' E 010°00'0 0.0
2019-May-11 05:28N 53°32' E 010°00'0 0.0
2019-May-11 04:58N 53°32' E 010°00'0 0.0
2019-May-11 04:27N 53°32' E 010°00'0 0.0
2019-May-11 04:00N 53°32' E 010°00'0 0.0
2019-May-11 03:30N 53°32' E 010°00'0 0.0
2019-May-11 03:00N 53°32' E 010°00'0 0.0
2019-May-11 02:30N 53°32' E 010°00'0 0.0
2019-May-11 01:59N 53°32' E 010°00'0 0.0
2019-May-11 01:29N 53°32' E 010°00'0 0.0
2019-May-11 00:59N 53°32' E 010°00'0 0.0
2019-May-11 00:29N 53°32' E 010°00'0 0.0
2019-May-10 23:58N 53°32' E 010°00'0 0.0
2019-May-10 23:28N 53°32' E 010°00'0 0.0
2019-May-10 22:58N 53°32' E 010°00'0 0.0
2019-May-10 22:28N 53°32' E 010°00'0 0.0
2019-May-10 21:58N 53°32' E 010°00'0 0.0
2019-May-10 21:30N 53°32' E 010°00'0 0.0
2019-May-10 21:00N 53°32' E 010°00'0 0.0
2019-May-10 20:30N 53°32' E 010°00'0 0.0
2019-May-10 20:00N 53°32' E 010°00'0 0.0
2019-May-10 19:30N 53°32' E 010°00'0 0.0
2019-May-10 18:59N 53°32' E 010°00'0 0.0
2019-May-10 18:29N 53°32' E 010°00'0 0.0
2019-May-10 17:59N 53°32' E 010°00'0 0.0
2019-May-10 17:29N 53°32' E 010°00'0 0.0
2019-May-10 16:58N 53°32' E 010°00'0 0.0
2019-May-10 16:28N 53°32' E 010°00'0 0.0
2019-May-10 15:58N 53°32' E 010°00'0 0.0
2019-May-10 15:28N 53°32' E 010°00'0 0.0
2019-May-10 14:58N 53°32' E 010°00'0 0.0
2019-May-10 14:30N 53°32' E 010°00'0 0.0
2019-May-10 14:00N 53°32' E 010°00'0 0.0
2019-May-10 13:30N 53°32' E 010°00'0 0.0
2019-May-10 13:00N 53°32' E 010°00'0 0.0
2019-May-10 12:30N 53°32' E 010°00'0 0.0
2019-May-10 11:59N 53°32' E 010°00'0 0.0
2019-May-10 11:29N 53°32' E 010°00'0 0.0
2019-May-10 11:00N 53°32' E 010°00'2 4.4
2019-May-10 10:30N 53°33' E 009°57'4 7.1
2019-May-10 10:00N 53°33' E 009°51'3 5.4
2019-May-10 09:30N 53°34' E 009°46'4 8.2
2019-May-10 09:00N 53°34' E 009°40'5 9.5
2019-May-10 08:30N 53°37' E 009°33'5 9.4
2019-May-10 08:00N 53°41' E 009°30'510.5
2019-May-10 07:30N 53°45' E 009°24'611.6
2019-May-10 07:00N 53°51' E 009°20'611.2
2019-May-10 06:29N 53°53' E 009°11'510.0
2019-May-10 06:00N 53°52' E 009°03'612.8
2019-May-10 05:30N 53°50' E 008°52'612.7
2019-May-10 05:00N 53°53' E 008°43'612.9
2019-May-10 04:30N 53°58' E 008°35'713.2
2019-May-10 03:59N 53°59' E 008°24'612.0
2019-May-10 03:30N 53°60' E 008°14'911.1
2019-May-10 02:43N 54°01' E 007°59'  

Dump ship's entire track history